sensor_id;sensor_type;location;lat;lon;timestamp;pressure;altitude;pressure_sealevel;temperature;humidity
46111;BME280;31849;55.992;37.252;2023-01-25T00:00:48;100619.81;;;1.41;54.78
46111;BME280;31849;55.992;37.252;2023-01-25T00:05:57;100617.03;;;1.53;54.48
46111;BME280;31849;55.992;37.252;2023-01-25T00:11:00;100610.38;;;1.40;55.17
46111;BME280;31849;55.992;37.252;2023-01-25T00:16:05;100609.84;;;1.46;54.65
46111;BME280;31849;55.992;37.252;2023-01-25T00:21:13;100602.00;;;1.43;54.20
46111;BME280;31849;55.992;37.252;2023-01-25T00:26:16;100594.47;;;1.29;54.53
46111;BME280;31849;55.992;37.252;2023-01-25T00:31:30;100587.41;;;1.25;54.98
46111;BME280;31849;55.992;37.252;2023-01-25T00:36:39;100578.34;;;1.15;54.90
46111;BME280;31849;55.992;37.252;2023-01-25T00:41:43;100565.81;;;1.05;54.83
46111;BME280;31849;55.992;37.252;2023-01-25T00:46:48;100562.53;;;0.91;55.24
46111;BME280;31849;55.992;37.252;2023-01-25T00:51:52;100561.09;;;0.96;54.92
46111;BME280;31849;55.992;37.252;2023-01-25T00:56:56;100571.34;;;0.96;55.54
46111;BME280;31849;55.992;37.252;2023-01-25T01:02:01;100536.53;;;0.83;55.19
46111;BME280;31849;55.992;37.252;2023-01-25T01:07:04;100571.94;;;1.07;54.90
46111;BME280;31849;55.992;37.252;2023-01-25T01:12:07;100569.69;;;0.97;54.89
46111;BME280;31849;55.992;37.252;2023-01-25T01:17:12;100550.22;;;1.00;54.79
46111;BME280;31849;55.992;37.252;2023-01-25T01:22:16;100542.13;;;0.93;54.95
46111;BME280;31849;55.992;37.252;2023-01-25T01:27:19;100520.84;;;0.94;55.14
46111;BME280;31849;55.992;37.252;2023-01-25T01:32:24;100517.72;;;0.99;54.87
46111;BME280;31849;55.992;37.252;2023-01-25T01:37:28;100519.63;;;0.87;55.14
46111;BME280;31849;55.992;37.252;2023-01-25T01:42:31;100507.84;;;0.74;55.24
46111;BME280;31849;55.992;37.252;2023-01-25T01:47:39;100509.22;;;0.84;55.27
46111;BME280;31849;55.992;37.252;2023-01-25T01:52:47;100516.59;;;0.94;55.36
46111;BME280;31849;55.992;37.252;2023-01-25T01:57:52;100513.19;;;1.10;55.08
46111;BME280;31849;55.992;37.252;2023-01-25T02:03:00;100506.28;;;0.93;55.00
46111;BME280;31849;55.992;37.252;2023-01-25T02:08:03;100514.38;;;1.00;55.12
46111;BME280;31849;55.992;37.252;2023-01-25T02:13:08;100508.28;;;0.98;55.37
46111;BME280;31849;55.992;37.252;2023-01-25T02:18:13;100517.09;;;1.03;55.46
46111;BME280;31849;55.992;37.252;2023-01-25T02:23:21;100513.19;;;1.10;54.89
46111;BME280;31849;55.992;37.252;2023-01-25T02:28:32;100517.41;;;1.10;55.29
46111;BME280;31849;55.992;37.252;2023-01-25T02:33:37;100530.28;;;1.11;54.98
46111;BME280;31849;55.992;37.252;2023-01-25T02:38:44;100523.50;;;1.12;55.38
46111;BME280;31849;55.992;37.252;2023-01-25T02:43:50;100535.91;;;1.04;55.42
46111;BME280;31849;55.992;37.252;2023-01-25T02:48:54;100521.34;;;1.03;55.78
46111;BME280;31849;55.992;37.252;2023-01-25T02:53:58;100534.69;;;1.14;55.71
46111;BME280;31849;55.992;37.252;2023-01-25T02:59:04;100520.47;;;1.19;54.91
46111;BME280;31849;55.992;37.252;2023-01-25T03:04:07;100506.28;;;1.09;55.11
46111;BME280;31849;55.992;37.252;2023-01-25T03:09:11;100502.84;;;1.09;55.41
46111;BME280;31849;55.992;37.252;2023-01-25T03:14:16;100505.00;;;1.01;55.09
46111;BME280;31849;55.992;37.252;2023-01-25T03:19:19;100502.19;;;0.96;55.11
46111;BME280;31849;55.992;37.252;2023-01-25T03:24:23;100517.31;;;0.92;54.99
46111;BME280;31849;55.992;37.252;2023-01-25T03:29:28;100504.03;;;0.99;55.42
46111;BME280;31849;55.992;37.252;2023-01-25T03:34:31;100497.66;;;1.07;54.64
46111;BME280;31849;55.992;37.252;2023-01-25T03:39:34;100495.66;;;1.01;54.96
46111;BME280;31849;55.992;37.252;2023-01-25T03:44:39;100490.59;;;1.03;55.45
46111;BME280;31849;55.992;37.252;2023-01-25T03:49:42;100490.06;;;1.09;55.08
46111;BME280;31849;55.992;37.252;2023-01-25T03:54:46;100491.31;;;0.84;55.39
46111;BME280;31849;55.992;37.252;2023-01-25T03:59:50;100498.53;;;0.91;54.92
46111;BME280;31849;55.992;37.252;2023-01-25T04:04:53;100496.81;;;0.92;55.23
46111;BME280;31849;55.992;37.252;2023-01-25T04:09:57;100499.84;;;0.68;55.43
46111;BME280;31849;55.992;37.252;2023-01-25T04:15:02;100494.34;;;0.77;55.53
46111;BME280;31849;55.992;37.252;2023-01-25T04:20:07;100480.41;;;0.72;55.10
46111;BME280;31849;55.992;37.252;2023-01-25T04:25:10;100487.13;;;0.69;55.42
46111;BME280;31849;55.992;37.252;2023-01-25T04:30:15;100492.16;;;0.68;55.49
46111;BME280;31849;55.992;37.252;2023-01-25T04:35:19;100494.97;;;0.73;55.27
46111;BME280;31849;55.992;37.252;2023-01-25T04:40:23;100491.53;;;0.72;55.43
46111;BME280;31849;55.992;37.252;2023-01-25T04:45:27;100488.25;;;0.75;54.83
46111;BME280;31849;55.992;37.252;2023-01-25T04:50:31;100483.84;;;0.72;55.12
46111;BME280;31849;55.992;37.252;2023-01-25T04:55:35;100499.28;;;0.74;55.29
46111;BME280;31849;55.992;37.252;2023-01-25T05:00:40;100494.19;;;0.74;54.73
46111;BME280;31849;55.992;37.252;2023-01-25T05:05:46;100502.00;;;0.77;54.87
46111;BME280;31849;55.992;37.252;2023-01-25T05:10:49;100488.47;;;0.63;55.21
46111;BME280;31849;55.992;37.252;2023-01-25T05:15:56;100500.25;;;0.76;54.97
46111;BME280;31849;55.992;37.252;2023-01-25T05:20:59;100507.69;;;0.71;54.79
46111;BME280;31849;55.992;37.252;2023-01-25T05:26:03;100513.69;;;0.72;55.26
46111;BME280;31849;55.992;37.252;2023-01-25T05:31:25;100495.69;;;0.70;55.12
46111;BME280;31849;55.992;37.252;2023-01-25T05:36:29;100485.09;;;0.64;55.35
46111;BME280;31849;55.992;37.252;2023-01-25T05:41:32;100482.38;;;0.61;55.08
46111;BME280;31849;55.992;37.252;2023-01-25T05:46:37;100480.56;;;0.58;55.37
46111;BME280;31849;55.992;37.252;2023-01-25T05:51:41;100481.16;;;0.38;55.69
46111;BME280;31849;55.992;37.252;2023-01-25T05:56:47;100476.16;;;0.24;55.74
46111;BME280;31849;55.992;37.252;2023-01-25T06:01:53;100490.69;;;0.25;55.80
46111;BME280;31849;55.992;37.252;2023-01-25T06:06:56;100470.72;;;0.18;55.78
46111;BME280;31849;55.992;37.252;2023-01-25T06:12:02;100480.44;;;0.40;55.61
46111;BME280;31849;55.992;37.252;2023-01-25T06:17:09;100487.72;;;0.49;55.49
46111;BME280;31849;55.992;37.252;2023-01-25T06:22:12;100490.59;;;0.70;54.95
46111;BME280;31849;55.992;37.252;2023-01-25T06:27:15;100492.06;;;0.66;55.39
46111;BME280;31849;55.992;37.252;2023-01-25T06:32:20;100498.81;;;0.81;55.62
46111;BME280;31849;55.992;37.252;2023-01-25T06:37:25;100506.38;;;0.94;55.14
46111;BME280;31849;55.992;37.252;2023-01-25T06:42:28;100490.84;;;0.91;55.30
46111;BME280;31849;55.992;37.252;2023-01-25T06:47:33;100496.34;;;0.99;55.35
46111;BME280;31849;55.992;37.252;2023-01-25T06:52:36;100499.47;;;1.10;54.59
46111;BME280;31849;55.992;37.252;2023-01-25T06:57:40;100485.94;;;0.79;55.36
46111;BME280;31849;55.992;37.252;2023-01-25T07:02:45;100494.34;;;0.93;54.91
46111;BME280;31849;55.992;37.252;2023-01-25T07:07:48;100481.69;;;0.80;54.39
46111;BME280;31849;55.992;37.252;2023-01-25T07:12:51;100478.19;;;0.94;54.77
46111;BME280;31849;55.992;37.252;2023-01-25T07:17:56;100474.91;;;1.13;54.51
46111;BME280;31849;55.992;37.252;2023-01-25T07:23:09;100469.78;;;1.13;54.23
46111;BME280;31849;55.992;37.252;2023-01-25T07:28:15;100452.41;;;1.08;54.65
46111;BME280;31849;55.992;37.252;2023-01-25T07:33:20;100464.75;;;1.15;54.07
46111;BME280;31849;55.992;37.252;2023-01-25T07:38:23;100480.97;;;1.32;53.51
46111;BME280;31849;55.992;37.252;2023-01-25T07:43:27;100474.03;;;0.96;54.03
46111;BME280;31849;55.992;37.252;2023-01-25T07:48:33;100486.16;;;1.33;53.67
46111;BME280;31849;55.992;37.252;2023-01-25T07:53:36;100478.72;;;1.54;53.38
46111;BME280;31849;55.992;37.252;2023-01-25T07:58:40;100466.34;;;1.64;53.34
46111;BME280;31849;55.992;37.252;2023-01-25T08:03:45;100466.78;;;1.73;53.23
46111;BME280;31849;55.992;37.252;2023-01-25T08:08:49;100471.56;;;1.83;52.68
46111;BME280;31849;55.992;37.252;2023-01-25T08:13:53;100451.50;;;1.74;53.07
46111;BME280;31849;55.992;37.252;2023-01-25T08:18:59;100465.66;;;1.84;52.81
46111;BME280;31849;55.992;37.252;2023-01-25T08:24:05;100461.28;;;1.65;53.06
46111;BME280;31849;55.992;37.252;2023-01-25T08:29:10;100456.94;;;1.46;53.31
46111;BME280;31849;55.992;37.252;2023-01-25T08:34:15;100454.81;;;1.55;53.50
46111;BME280;31849;55.992;37.252;2023-01-25T08:39:19;100449.16;;;1.45;53.61
46111;BME280;31849;55.992;37.252;2023-01-25T08:44:22;100447.97;;;1.38;53.74
46111;BME280;31849;55.992;37.252;2023-01-25T08:49:28;100441.06;;;1.53;53.20
46111;BME280;31849;55.992;37.252;2023-01-25T08:54:32;100438.53;;;1.37;53.36
46111;BME280;31849;55.992;37.252;2023-01-25T08:59:36;100427.56;;;1.23;53.73
46111;BME280;31849;55.992;37.252;2023-01-25T09:04:41;100425.16;;;1.43;53.58
46111;BME280;31849;55.992;37.252;2023-01-25T09:09:44;100415.31;;;1.34;53.16
46111;BME280;31849;55.992;37.252;2023-01-25T09:14:47;100404.94;;;1.14;53.85
46111;BME280;31849;55.992;37.252;2023-01-25T09:19:52;100404.56;;;1.07;54.08
46111;BME280;31849;55.992;37.252;2023-01-25T09:24:56;100382.47;;;1.09;54.15
46111;BME280;31849;55.992;37.252;2023-01-25T09:29:59;100378.47;;;1.32;54.21
46111;BME280;31849;55.992;37.252;2023-01-25T09:35:07;100370.84;;;1.15;54.11
46111;BME280;31849;55.992;37.252;2023-01-25T09:40:16;100358.00;;;0.97;53.98
46111;BME280;31849;55.992;37.252;2023-01-25T09:45:29;100353.69;;;1.14;54.21
46111;BME280;31849;55.992;37.252;2023-01-25T09:50:37;100338.72;;;1.22;54.41
46111;BME280;31849;55.992;37.252;2023-01-25T09:55:49;100338.09;;;1.10;54.47
46111;BME280;31849;55.992;37.252;2023-01-25T10:01:04;100327.81;;;1.26;53.84
46111;BME280;31849;55.992;37.252;2023-01-25T10:06:18;100328.72;;;1.45;53.14
46111;BME280;31849;55.992;37.252;2023-01-25T10:11:27;100323.31;;;1.56;53.56
46111;BME280;31849;55.992;37.252;2023-01-25T10:16:35;100321.69;;;1.40;53.70
46111;BME280;31849;55.992;37.252;2023-01-25T10:21:44;100325.03;;;1.39;54.11
46111;BME280;31849;55.992;37.252;2023-01-25T10:26:52;100298.53;;;1.39;54.11
46111;BME280;31849;55.992;37.252;2023-01-25T10:32:04;100294.78;;;1.14;54.41
46111;BME280;31849;55.992;37.252;2023-01-25T10:37:19;100302.66;;;1.01;54.88
46111;BME280;31849;55.992;37.252;2023-01-25T10:42:25;100291.81;;;0.88;55.13
46111;BME280;31849;55.992;37.252;2023-01-25T10:47:32;100290.75;;;1.01;55.10
46111;BME280;31849;55.992;37.252;2023-01-25T10:52:57;100291.44;;;1.15;54.87
46111;BME280;31849;55.992;37.252;2023-01-25T10:58:03;100291.44;;;1.15;55.10
46111;BME280;31849;55.992;37.252;2023-01-25T11:03:19;100284.38;;;1.11;54.86
46111;BME280;31849;55.992;37.252;2023-01-25T11:08:30;100292.00;;;0.75;55.95
46111;BME280;31849;55.992;37.252;2023-01-25T11:13:34;100272.19;;;1.23;55.17
46111;BME280;31849;55.992;37.252;2023-01-25T11:18:49;100271.16;;;1.20;54.35
46111;BME280;31849;55.992;37.252;2023-01-25T11:24:14;100262.69;;;1.21;54.12
46111;BME280;31849;55.992;37.252;2023-01-25T11:29:20;100252.19;;;1.52;54.39
46111;BME280;31849;55.992;37.252;2023-01-25T11:34:27;100248.00;;;1.72;53.50
46111;BME280;31849;55.992;37.252;2023-01-25T11:39:41;100251.47;;;1.55;52.97
46111;BME280;31849;55.992;37.252;2023-01-25T11:45:11;100256.69;;;1.20;53.51
46111;BME280;31849;55.992;37.252;2023-01-25T11:50:24;100244.97;;;1.08;54.03
46111;BME280;31849;55.992;37.252;2023-01-25T11:55:37;100243.22;;;1.43;53.30
46111;BME280;31849;55.992;37.252;2023-01-25T12:01:03;100236.91;;;1.73;52.48
46111;BME280;31849;55.992;37.252;2023-01-25T12:06:14;100237.34;;;2.22;52.23
46111;BME280;31849;55.992;37.252;2023-01-25T12:11:34;100226.22;;;2.21;51.64
46111;BME280;31849;55.992;37.252;2023-01-25T12:16:51;100202.56;;;1.70;51.35
46111;BME280;31849;55.992;37.252;2023-01-25T12:22:11;100206.06;;;1.52;51.73
46111;BME280;31849;55.992;37.252;2023-01-25T12:27:34;100200.78;;;1.49;51.71
46111;BME280;31849;55.992;37.252;2023-01-25T12:32:46;100204.78;;;1.43;52.07
46111;BME280;31849;55.992;37.252;2023-01-25T12:37:55;100200.41;;;1.22;51.94
46111;BME280;31849;55.992;37.252;2023-01-25T12:43:02;100196.84;;;1.38;52.04
46111;BME280;31849;55.992;37.252;2023-01-25T12:48:15;100189.69;;;1.31;52.51
46111;BME280;31849;55.992;37.252;2023-01-25T12:53:23;100187.97;;;1.12;52.79
46111;BME280;31849;55.992;37.252;2023-01-25T12:58:33;100183.41;;;0.70;53.14
46111;BME280;31849;55.992;37.252;2023-01-25T13:03:53;100175.88;;;0.73;53.41
46111;BME280;31849;55.992;37.252;2023-01-25T13:09:05;100172.69;;;0.77;53.57
46111;BME280;31849;55.992;37.252;2023-01-25T13:14:40;100150.22;;;0.90;53.23
46111;BME280;31849;55.992;37.252;2023-01-25T13:19:43;100138.63;;;0.62;53.79
46111;BME280;31849;55.992;37.252;2023-01-25T13:25:08;100131.09;;;0.47;54.38
46111;BME280;31849;55.992;37.252;2023-01-25T13:30:29;100116.97;;;0.37;54.30
46111;BME280;31849;55.992;37.252;2023-01-25T13:35:38;100114.59;;;0.24;55.21
46111;BME280;31849;55.992;37.252;2023-01-25T13:40:42;100117.50;;;0.30;54.95
46111;BME280;31849;55.992;37.252;2023-01-25T13:45:49;100107.84;;;0.42;54.59
46111;BME280;31849;55.992;37.252;2023-01-25T13:50:56;100112.81;;;0.39;55.10
46111;BME280;31849;55.992;37.252;2023-01-25T13:56:01;100111.50;;;0.47;55.05
46111;BME280;31849;55.992;37.252;2023-01-25T14:01:13;100099.88;;;0.18;55.75
46111;BME280;31849;55.992;37.252;2023-01-25T14:06:19;100104.03;;;0.34;55.26
46111;BME280;31849;55.992;37.252;2023-01-25T14:11:25;100102.53;;;0.38;55.58
46111;BME280;31849;55.992;37.252;2023-01-25T14:17:09;100098.97;;;0.35;55.47
46111;BME280;31849;55.992;37.252;2023-01-25T14:22:22;100088.47;;;0.29;55.68
46111;BME280;31849;55.992;37.252;2023-01-25T14:27:26;100101.19;;;0.28;55.66
46111;BME280;31849;55.992;37.252;2023-01-25T14:32:32;100084.81;;;0.24;55.82
46111;BME280;31849;55.992;37.252;2023-01-25T14:37:41;100102.75;;;0.42;55.21
46111;BME280;31849;55.992;37.252;2023-01-25T14:42:44;100106.22;;;0.44;55.15
46111;BME280;31849;55.992;37.252;2023-01-25T14:47:50;100080.72;;;0.46;55.54
46111;BME280;31849;55.992;37.252;2023-01-25T14:53:06;100067.22;;;0.48;55.73
46111;BME280;31849;55.992;37.252;2023-01-25T14:58:12;100055.56;;;0.37;55.81
46111;BME280;31849;55.992;37.252;2023-01-25T15:03:20;100057.13;;;0.33;56.24
46111;BME280;31849;55.992;37.252;2023-01-25T15:08:27;100059.09;;;0.39;55.73
46111;BME280;31849;55.992;37.252;2023-01-25T15:13:31;100063.78;;;0.30;55.84
46111;BME280;31849;55.992;37.252;2023-01-25T15:18:44;100053.63;;;0.49;56.27
46111;BME280;31849;55.992;37.252;2023-01-25T15:23:48;100040.38;;;0.22;56.77
46111;BME280;31849;55.992;37.252;2023-01-25T15:28:54;100030.22;;;0.24;56.79
46111;BME280;31849;55.992;37.252;2023-01-25T15:34:00;100036.06;;;0.21;56.93
46111;BME280;31849;55.992;37.252;2023-01-25T15:39:04;100025.78;;;0.20;57.10
46111;BME280;31849;55.992;37.252;2023-01-25T15:44:08;100021.81;;;0.08;57.45
46111;BME280;31849;55.992;37.252;2023-01-25T15:49:23;100026.78;;;0.23;56.83
46111;BME280;31849;55.992;37.252;2023-01-25T15:54:27;100026.06;;;0.26;56.86
46111;BME280;31849;55.992;37.252;2023-01-25T15:59:31;100024.88;;;0.19;57.21
46111;BME280;31849;55.992;37.252;2023-01-25T16:04:40;100013.69;;;0.35;57.12
46111;BME280;31849;55.992;37.252;2023-01-25T16:09:44;100004.41;;;0.19;57.58
46111;BME280;31849;55.992;37.252;2023-01-25T16:14:50;99997.44;;;0.15;57.61
46111;BME280;31849;55.992;37.252;2023-01-25T16:19:55;99991.78;;;0.22;57.79
46111;BME280;31849;55.992;37.252;2023-01-25T16:25:01;99984.78;;;0.18;58.11
46111;BME280;31849;55.992;37.252;2023-01-25T16:30:07;99971.38;;;0.06;58.32
46111;BME280;31849;55.992;37.252;2023-01-25T16:35:14;99997.84;;;0.24;57.98
46111;BME280;31849;55.992;37.252;2023-01-25T16:40:23;100004.25;;;0.34;57.78
46111;BME280;31849;55.992;37.252;2023-01-25T16:45:29;99993.19;;;-0.03;58.67
46111;BME280;31849;55.992;37.252;2023-01-25T16:50:34;99991.84;;;0.24;58.75
46111;BME280;31849;55.992;37.252;2023-01-25T16:55:40;99989.75;;;0.15;59.42
46111;BME280;31849;55.992;37.252;2023-01-25T17:00:43;99978.34;;;0.26;58.48
46111;BME280;31849;55.992;37.252;2023-01-25T17:05:53;99987.84;;;0.29;58.50
46111;BME280;31849;55.992;37.252;2023-01-25T17:11:02;99972.72;;;0.33;58.35
46111;BME280;31849;55.992;37.252;2023-01-25T17:16:06;99988.78;;;0.31;58.35
46111;BME280;31849;55.992;37.252;2023-01-25T17:21:11;99983.06;;;0.37;58.52
46111;BME280;31849;55.992;37.252;2023-01-25T17:26:17;99974.47;;;0.16;58.85
46111;BME280;31849;55.992;37.252;2023-01-25T17:31:23;99971.84;;;0.15;59.09
46111;BME280;31849;55.992;37.252;2023-01-25T17:36:31;99964.84;;;0.11;59.26
46111;BME280;31849;55.992;37.252;2023-01-25T17:41:35;99970.31;;;0.01;59.11
46111;BME280;31849;55.992;37.252;2023-01-25T17:46:43;99973.94;;;0.06;59.17
46111;BME280;31849;55.992;37.252;2023-01-25T17:51:48;99967.81;;;-0.16;59.36
46111;BME280;31849;55.992;37.252;2023-01-25T17:56:51;99971.16;;;-0.17;59.50
46111;BME280;31849;55.992;37.252;2023-01-25T18:01:55;99957.09;;;-0.09;59.08
46111;BME280;31849;55.992;37.252;2023-01-25T18:07:01;99961.91;;;0.03;59.30
46111;BME280;31849;55.992;37.252;2023-01-25T18:12:04;99956.56;;;-0.02;59.43
46111;BME280;31849;55.992;37.252;2023-01-25T18:17:07;99949.34;;;-0.10;59.06
46111;BME280;31849;55.992;37.252;2023-01-25T18:22:12;99939.63;;;0.01;59.18
46111;BME280;31849;55.992;37.252;2023-01-25T18:27:18;99937.16;;;0.02;59.25
46111;BME280;31849;55.992;37.252;2023-01-25T18:32:21;99934.75;;;-0.13;59.08
46111;BME280;31849;55.992;37.252;2023-01-25T18:37:26;99937.22;;;-0.14;59.10
46111;BME280;31849;55.992;37.252;2023-01-25T18:42:34;99919.53;;;-0.46;59.35
46111;BME280;31849;55.992;37.252;2023-01-25T18:47:38;99924.97;;;-0.56;59.45
46111;BME280;31849;55.992;37.252;2023-01-25T18:52:42;99913.22;;;-0.52;59.15
46111;BME280;31849;55.992;37.252;2023-01-25T18:57:46;99913.31;;;-0.51;59.17
46111;BME280;31849;55.992;37.252;2023-01-25T19:02:51;99910.53;;;-0.56;58.83
46111;BME280;31849;55.992;37.252;2023-01-25T19:07:55;99890.28;;;-0.69;59.31
46111;BME280;31849;55.992;37.252;2023-01-25T19:12:59;99905.56;;;-0.87;59.14
46111;BME280;31849;55.992;37.252;2023-01-25T19:18:03;99898.56;;;-0.91;59.26
46111;BME280;31849;55.992;37.252;2023-01-25T19:23:07;99897.28;;;-0.83;59.27
46111;BME280;31849;55.992;37.252;2023-01-25T19:28:14;99897.28;;;-0.83;58.60
46111;BME280;31849;55.992;37.252;2023-01-25T19:33:17;99885.56;;;-0.96;58.97
46111;BME280;31849;55.992;37.252;2023-01-25T19:38:23;99877.84;;;-1.14;59.39
46111;BME280;31849;55.992;37.252;2023-01-25T19:43:27;99873.38;;;-1.34;59.63
46111;BME280;31849;55.992;37.252;2023-01-25T19:48:32;99873.69;;;-1.28;59.61
46111;BME280;31849;55.992;37.252;2023-01-25T19:53:38;99870.13;;;-1.15;59.16
46111;BME280;31849;55.992;37.252;2023-01-25T19:58:42;99864.22;;;-1.31;59.40
46111;BME280;31849;55.992;37.252;2023-01-25T20:03:47;99858.25;;;-1.48;59.77
46111;BME280;31849;55.992;37.252;2023-01-25T20:08:55;99857.03;;;-1.54;59.68
46111;BME280;31849;55.992;37.252;2023-01-25T20:14:00;99862.97;;;-1.55;59.70
46111;BME280;31849;55.992;37.252;2023-01-25T20:19:06;99852.28;;;-1.48;59.93
46111;BME280;31849;55.992;37.252;2023-01-25T20:24:10;99850.91;;;-1.42;59.64
46111;BME280;31849;55.992;37.252;2023-01-25T20:29:14;99844.38;;;-1.36;59.93
46111;BME280;31849;55.992;37.252;2023-01-25T20:34:18;99847.66;;;-1.39;60.07
46111;BME280;31849;55.992;37.252;2023-01-25T20:39:24;99842.25;;;-1.45;60.20
46111;BME280;31849;55.992;37.252;2023-01-25T20:44:27;99836.78;;;-1.18;59.27
46111;BME280;31849;55.992;37.252;2023-01-25T20:49:31;99827.50;;;-1.00;59.06
46111;BME280;31849;55.992;37.252;2023-01-25T20:54:36;99820.28;;;-0.91;59.00
46111;BME280;31849;55.992;37.252;2023-01-25T20:59:39;99808.47;;;-0.89;58.83
46111;BME280;31849;55.992;37.252;2023-01-25T21:04:42;99811.94;;;-1.04;59.35
46111;BME280;31849;55.992;37.252;2023-01-25T21:09:47;99810.03;;;-1.09;59.37
46111;BME280;31849;55.992;37.252;2023-01-25T21:14:50;99808.94;;;-1.14;59.27
46111;BME280;31849;55.992;37.252;2023-01-25T21:19:54;99808.00;;;-1.32;59.63
46111;BME280;31849;55.992;37.252;2023-01-25T21:25:00;99789.53;;;-1.45;59.69
46111;BME280;31849;55.992;37.252;2023-01-25T21:30:05;99779.94;;;-1.32;59.83
46111;BME280;31849;55.992;37.252;2023-01-25T21:35:10;99768.09;;;-1.32;59.39
46111;BME280;31849;55.992;37.252;2023-01-25T21:40:15;99767.06;;;-1.52;60.01
46111;BME280;31849;55.992;37.252;2023-01-25T21:45:18;99775.53;;;-1.53;59.88
46111;BME280;31849;55.992;37.252;2023-01-25T21:50:39;99775.03;;;-1.46;59.83
46111;BME280;31849;55.992;37.252;2023-01-25T21:56:02;99774.38;;;-1.42;59.54
46111;BME280;31849;55.992;37.252;2023-01-25T22:01:05;99758.31;;;-1.57;60.13
46111;BME280;31849;55.992;37.252;2023-01-25T22:06:11;99748.84;;;-1.60;60.03
46111;BME280;31849;55.992;37.252;2023-01-25T22:11:16;99750.94;;;-1.69;59.98
46111;BME280;31849;55.992;37.252;2023-01-25T22:16:19;99752.19;;;-1.61;59.84
46111;BME280;31849;55.992;37.252;2023-01-25T22:21:27;99747.56;;;-1.51;59.74
46111;BME280;31849;55.992;37.252;2023-01-25T22:26:42;99758.22;;;-1.42;59.47
46111;BME280;31849;55.992;37.252;2023-01-25T22:31:48;99755.91;;;-1.37;59.51
46111;BME280;31849;55.992;37.252;2023-01-25T22:36:51;99748.19;;;-1.21;59.05
46111;BME280;31849;55.992;37.252;2023-01-25T22:41:56;99745.22;;;-1.12;58.81
46111;BME280;31849;55.992;37.252;2023-01-25T22:46:59;99739.41;;;-1.44;58.79
46111;BME280;31849;55.992;37.252;2023-01-25T22:52:03;99738.19;;;-1.34;59.01
46111;BME280;31849;55.992;37.252;2023-01-25T22:57:10;99730.78;;;-1.12;58.48
46111;BME280;31849;55.992;37.252;2023-01-25T23:02:14;99729.31;;;-1.25;58.76
46111;BME280;31849;55.992;37.252;2023-01-25T23:07:17;99719.97;;;-1.42;59.16
46111;BME280;31849;55.992;37.252;2023-01-25T23:12:22;99726.69;;;-1.26;58.87
46111;BME280;31849;55.992;37.252;2023-01-25T23:17:25;99721.69;;;-1.25;58.72
46111;BME280;31849;55.992;37.252;2023-01-25T23:22:46;99713.41;;;-1.37;58.47
46111;BME280;31849;55.992;37.252;2023-01-25T23:27:51;99707.94;;;-1.45;58.70
46111;BME280;31849;55.992;37.252;2023-01-25T23:32:54;99709.38;;;-1.50;58.88
46111;BME280;31849;55.992;37.252;2023-01-25T23:37:58;99703.66;;;-1.62;59.24
46111;BME280;31849;55.992;37.252;2023-01-25T23:43:02;99705.88;;;-1.52;58.67
46111;BME280;31849;55.992;37.252;2023-01-25T23:48:06;99697.09;;;-1.40;58.50
46111;BME280;31849;55.992;37.252;2023-01-25T23:53:09;99701.53;;;-1.36;58.67
46111;BME280;31849;55.992;37.252;2023-01-25T23:58:14;99701.22;;;-1.43;58.98
